createdAt,value
2022-08-24T00:00:31.813Z,971.64
2022-08-24T00:01:32.053Z,971.67
2022-08-24T00:02:32.395Z,971.66
2022-08-24T00:03:34.660Z,971.71
2022-08-24T00:04:32.894Z,971.67
2022-08-24T00:05:33.136Z,971.66
2022-08-24T00:06:33.374Z,971.67
2022-08-24T00:07:33.625Z,971.66
2022-08-24T00:08:33.876Z,971.64
2022-08-24T00:09:34.125Z,971.66
2022-08-24T00:10:34.376Z,971.66
2022-08-24T00:11:34.614Z,971.62
2022-08-24T00:12:34.857Z,971.56
2022-08-24T00:13:36.894Z,971.56
2022-08-24T00:14:35.417Z,971.54
2022-08-24T00:15:35.659Z,971.54
2022-08-24T00:16:35.954Z,971.51
2022-08-24T00:17:36.188Z,971.47
2022-08-24T00:18:36.439Z,971.46
2022-08-24T00:19:36.691Z,971.45
2022-08-24T00:20:36.929Z,971.47
2022-08-24T00:21:37.169Z,971.50
2022-08-24T00:22:37.419Z,971.48
2022-08-24T00:23:37.659Z,971.49
2022-08-24T00:24:37.901Z,971.50
2022-08-24T00:25:39.091Z,971.48
2022-08-24T00:26:38.391Z,971.46
2022-08-24T00:27:38.642Z,971.44
2022-08-24T00:28:38.892Z,971.46
2022-08-24T00:29:39.151Z,971.44
2022-08-24T00:30:39.391Z,971.43
2022-08-24T00:31:39.692Z,971.47
2022-08-24T00:32:39.935Z,971.48
2022-08-24T00:33:40.173Z,971.48
2022-08-24T00:34:40.455Z,971.49
2022-08-24T00:35:41.692Z,971.51
2022-08-24T00:36:40.994Z,971.48
2022-08-24T00:37:41.234Z,971.49
2022-08-24T00:38:41.475Z,971.52
2022-08-24T00:39:45.770Z,971.51
2022-08-24T00:40:41.993Z,971.48
2022-08-24T00:41:42.229Z,971.45
2022-08-24T00:42:42.466Z,971.42
2022-08-24T00:43:42.707Z,971.45
2022-08-24T00:44:42.957Z,971.39
2022-08-24T00:45:43.277Z,971.35
2022-08-24T00:46:43.557Z,971.33
2022-08-24T00:47:47.670Z,971.30
2022-08-24T00:48:44.068Z,971.29
2022-08-24T00:49:44.309Z,971.31
2022-08-24T00:50:44.556Z,971.33
2022-08-24T00:51:44.789Z,971.35
2022-08-24T00:52:45.030Z,971.30
2022-08-24T00:53:45.270Z,971.29
2022-08-24T00:54:46.515Z,971.29
2022-08-24T00:55:45.752Z,971.29
2022-08-24T00:56:45.981Z,971.30
2022-08-24T00:57:46.231Z,971.31
2022-08-24T00:58:46.471Z,971.27
2022-08-24T00:59:47.704Z,971.27
2022-08-24T01:00:48.595Z,971.32
2022-08-24T01:01:47.645Z,971.29
2022-08-24T01:02:47.573Z,971.28
2022-08-24T01:03:47.824Z,971.30
2022-08-24T01:04:48.077Z,971.28
2022-08-24T01:05:48.313Z,971.29
2022-08-24T01:06:48.554Z,971.27
2022-08-24T01:07:48.794Z,971.33
2022-08-24T01:08:49.045Z,971.31
2022-08-24T01:09:50.285Z,971.33
2022-08-24T01:10:49.583Z,971.31
2022-08-24T01:11:49.827Z,971.30
2022-08-24T01:12:59.917Z,971.30
2022-08-24T01:13:51.416Z,971.33
2022-08-24T01:14:50.716Z,971.31
2022-08-24T01:15:50.996Z,971.30
2022-08-24T01:16:51.228Z,971.31
2022-08-24T01:17:51.477Z,971.33
2022-08-24T01:18:51.721Z,971.29
2022-08-24T01:19:51.966Z,971.32
2022-08-24T01:20:52.209Z,971.31
2022-08-24T01:21:52.459Z,971.28
2022-08-24T01:22:52.699Z,971.22
2022-08-24T01:23:52.939Z,971.27
2022-08-24T01:24:53.192Z,971.26
2022-08-24T01:25:53.431Z,971.25
2022-08-24T01:26:53.681Z,971.26
2022-08-24T01:27:53.922Z,971.26
2022-08-24T01:28:54.161Z,971.25
2022-08-24T01:29:54.412Z,971.24
2022-08-24T01:30:54.691Z,971.22
2022-08-24T01:31:54.975Z,971.25
2022-08-24T01:32:55.203Z,971.25
2022-08-24T01:33:55.443Z,971.21
2022-08-24T01:34:55.696Z,971.21
2022-08-24T01:35:55.924Z,971.20
2022-08-24T01:36:56.177Z,971.25
2022-08-24T01:37:56.468Z,971.25
2022-08-24T01:38:56.694Z,971.25
2022-08-24T01:39:56.958Z,971.25
2022-08-24T01:40:57.275Z,971.29
2022-08-24T01:41:57.484Z,971.32
2022-08-24T01:42:57.736Z,971.30
2022-08-24T01:43:57.977Z,971.31
2022-08-24T01:44:58.227Z,971.35
2022-08-24T01:45:58.474Z,971.36
2022-08-24T01:46:58.762Z,971.38
2022-08-24T01:47:59.028Z,971.37
2022-08-24T01:48:59.281Z,971.40
2022-08-24T01:49:59.508Z,971.39
2022-08-24T01:50:59.749Z,971.40
2022-08-24T01:51:59.996Z,971.41
2022-08-24T01:53:07.291Z,971.43
2022-08-24T01:54:01.515Z,971.41
2022-08-24T01:55:00.720Z,971.44
2022-08-24T01:56:00.961Z,971.39
2022-08-24T01:57:01.210Z,971.42
2022-08-24T01:58:01.450Z,971.45
2022-08-24T01:59:01.680Z,971.43
2022-08-24T02:00:01.938Z,971.45
2022-08-24T02:01:02.172Z,971.45
2022-08-24T02:02:02.455Z,971.47
2022-08-24T02:03:03.006Z,971.48
2022-08-24T02:04:02.982Z,971.51
2022-08-24T02:05:03.233Z,971.53
2022-08-24T02:06:03.473Z,971.51
2022-08-24T02:07:03.717Z,971.50
2022-08-24T02:08:04.038Z,971.50
2022-08-24T02:09:04.274Z,971.49
2022-08-24T02:10:04.525Z,971.50
2022-08-24T02:11:04.765Z,971.51
2022-08-24T02:12:05.013Z,971.52
2022-08-24T02:13:05.440Z,971.52
2022-08-24T02:14:05.907Z,971.52
2022-08-24T02:15:05.776Z,971.54
2022-08-24T02:16:06.053Z,971.50
2022-08-24T02:17:06.297Z,971.49
2022-08-24T02:18:06.538Z,971.51
2022-08-24T02:19:07.768Z,971.50
2022-08-24T02:20:07.069Z,971.49
2022-08-24T02:21:07.309Z,971.49
2022-08-24T02:22:07.559Z,971.52
2022-08-24T02:23:07.797Z,971.56
2022-08-24T02:24:08.040Z,971.55
2022-08-24T02:25:08.278Z,971.53
2022-08-24T02:26:08.560Z,971.52
2022-08-24T02:27:08.791Z,971.53
2022-08-24T02:28:09.040Z,971.51
2022-08-24T02:29:09.281Z,971.52
2022-08-24T02:30:09.532Z,971.50
2022-08-24T02:31:09.807Z,971.48
2022-08-24T02:32:10.042Z,971.48
2022-08-24T02:33:10.282Z,971.51
2022-08-24T02:34:10.542Z,971.52
2022-08-24T02:35:10.784Z,971.52
2022-08-24T02:36:25.182Z,971.53
2022-08-24T02:37:12.269Z,971.51
2022-08-24T02:38:11.572Z,971.49
2022-08-24T02:39:11.862Z,971.50
2022-08-24T02:40:12.153Z,971.54
2022-08-24T02:41:12.406Z,971.49
2022-08-24T02:42:12.745Z,971.50
2022-08-24T02:43:12.986Z,971.54
2022-08-24T02:44:13.226Z,971.55
2022-08-24T02:45:13.476Z,971.52
2022-08-24T02:46:13.976Z,971.54
2022-08-24T02:47:14.047Z,971.55
2022-08-24T02:48:14.288Z,971.54
2022-08-24T02:49:14.536Z,971.50
2022-08-24T02:50:14.779Z,971.53
2022-08-24T02:51:15.018Z,971.55
2022-08-24T02:52:15.269Z,971.54
2022-08-24T02:53:15.513Z,971.53
2022-08-24T02:54:15.751Z,971.53
2022-08-24T02:55:15.993Z,971.56
2022-08-24T02:56:16.290Z,971.57
2022-08-24T02:57:16.531Z,971.61
2022-08-24T02:58:16.771Z,971.58
2022-08-24T02:59:17.011Z,971.55
2022-08-24T03:00:17.261Z,971.57
2022-08-24T03:01:17.923Z,971.57
2022-08-24T03:02:18.782Z,971.54
2022-08-24T03:03:17.963Z,971.52
2022-08-24T03:04:18.207Z,971.54
2022-08-24T03:05:18.453Z,971.55
2022-08-24T03:06:18.702Z,971.53
2022-08-24T03:07:18.935Z,971.51
2022-08-24T03:08:19.181Z,971.53
2022-08-24T03:09:19.424Z,971.58
2022-08-24T03:10:19.682Z,971.55
2022-08-24T03:11:19.915Z,971.53
2022-08-24T03:12:20.163Z,971.55
2022-08-24T03:13:20.404Z,971.53
2022-08-24T03:14:20.652Z,971.52
2022-08-24T03:15:20.886Z,971.55
2022-08-24T03:16:21.137Z,971.51
2022-08-24T03:17:21.388Z,971.50
2022-08-24T03:18:24.604Z,971.50
2022-08-24T03:19:21.867Z,971.48
2022-08-24T03:20:22.118Z,971.46
2022-08-24T03:21:22.358Z,971.48
2022-08-24T03:22:22.599Z,971.46
2022-08-24T03:23:22.839Z,971.44
2022-08-24T03:24:23.088Z,971.45
2022-08-24T03:25:23.330Z,971.46
2022-08-24T03:26:23.578Z,971.43
2022-08-24T03:27:23.810Z,971.44
2022-08-24T03:28:24.166Z,971.40
2022-08-24T03:29:24.341Z,971.44
2022-08-24T03:30:24.609Z,971.41
2022-08-24T03:31:24.883Z,971.37
2022-08-24T03:32:25.122Z,971.39
2022-08-24T03:33:25.362Z,971.42
2022-08-24T03:34:25.602Z,971.40
2022-08-24T03:35:25.854Z,971.40
2022-08-24T03:36:26.103Z,971.42
2022-08-24T03:37:26.342Z,971.40
2022-08-24T03:38:26.585Z,971.39
2022-08-24T03:39:26.835Z,971.35
2022-08-24T03:40:27.117Z,971.38
2022-08-24T03:41:27.405Z,971.37
2022-08-24T03:42:27.665Z,971.41
2022-08-24T03:43:27.896Z,971.39
2022-08-24T03:44:28.144Z,971.37
2022-08-24T03:45:28.384Z,971.37
2022-08-24T03:46:28.642Z,971.40
2022-08-24T03:47:28.866Z,971.39
2022-08-24T03:48:29.107Z,971.37
2022-08-24T03:49:29.347Z,971.37
2022-08-24T03:50:29.588Z,971.39
2022-08-24T03:51:30.360Z,971.41
2022-08-24T03:52:33.862Z,971.40
2022-08-24T03:53:30.499Z,971.35
2022-08-24T03:54:30.740Z,971.38
2022-08-24T03:55:30.980Z,971.38
2022-08-24T03:56:31.220Z,971.39
2022-08-24T03:57:31.460Z,971.37
2022-08-24T03:58:31.708Z,971.36
2022-08-24T03:59:31.983Z,971.33
2022-08-24T04:00:32.231Z,971.35
2022-08-24T04:01:32.512Z,971.36
2022-08-24T04:02:33.171Z,971.34
2022-08-24T04:03:32.990Z,971.37
2022-08-24T04:04:33.243Z,971.35
2022-08-24T04:05:35.061Z,971.33
2022-08-24T04:06:33.811Z,971.33
2022-08-24T04:07:34.054Z,971.37
2022-08-24T04:08:34.294Z,971.38
2022-08-24T04:09:34.545Z,971.34
2022-08-24T04:10:34.803Z,971.38
2022-08-24T04:11:37.467Z,971.40
2022-08-24T04:12:36.266Z,971.44
2022-08-24T04:13:35.506Z,971.43
2022-08-24T04:14:35.756Z,971.48
2022-08-24T04:15:36.000Z,971.44
2022-08-24T04:16:36.351Z,971.43
2022-08-24T04:17:36.596Z,971.48
2022-08-24T04:18:36.837Z,971.48
2022-08-24T04:19:37.077Z,971.50
2022-08-24T04:20:37.318Z,971.48
2022-08-24T04:21:37.578Z,971.48
2022-08-24T04:22:37.818Z,971.52
2022-08-24T04:23:47.741Z,971.53
2022-08-24T04:24:39.289Z,971.52
2022-08-24T04:25:38.701Z,971.49
2022-08-24T04:26:45.570Z,971.52
2022-08-24T04:27:40.147Z,971.53
2022-08-24T04:28:39.449Z,971.52
2022-08-24T04:29:39.681Z,971.54
2022-08-24T04:30:39.931Z,971.53
2022-08-24T04:31:40.244Z,971.53
2022-08-24T04:32:40.483Z,971.54
2022-08-24T04:33:40.723Z,971.51
2022-08-24T04:34:40.991Z,971.52
2022-08-24T04:35:41.244Z,971.57
2022-08-24T04:36:41.496Z,971.58
2022-08-24T04:37:41.724Z,971.58
2022-08-24T04:38:41.971Z,971.61
2022-08-24T04:39:42.320Z,971.56
2022-08-24T04:40:42.534Z,971.61
2022-08-24T04:41:42.820Z,971.57
2022-08-24T04:42:43.046Z,971.57
2022-08-24T04:43:43.286Z,971.60
2022-08-24T04:44:43.534Z,971.56
2022-08-24T04:45:43.807Z,971.61
2022-08-24T04:46:44.045Z,971.60
2022-08-24T04:47:44.278Z,971.65
2022-08-24T04:48:44.527Z,971.68
2022-08-24T04:49:44.765Z,971.68
2022-08-24T04:50:45.010Z,971.74
2022-08-24T04:51:45.258Z,971.74
2022-08-24T04:52:45.488Z,971.76
2022-08-24T04:53:45.739Z,971.79
2022-08-24T04:54:45.979Z,971.80
2022-08-24T04:55:46.238Z,971.84
2022-08-24T04:56:46.480Z,971.86
2022-08-24T04:57:46.720Z,971.86
2022-08-24T04:58:47.914Z,971.87
2022-08-24T04:59:47.211Z,971.88
2022-08-24T05:00:47.476Z,971.92
2022-08-24T05:01:47.744Z,971.94
2022-08-24T05:02:48.027Z,971.97
2022-08-24T05:03:48.324Z,971.99
2022-08-24T05:04:48.573Z,972.00
2022-08-24T05:05:48.823Z,972.04
2022-08-24T05:06:53.128Z,972.06
2022-08-24T05:07:53.486Z,972.07
2022-08-24T05:08:50.584Z,972.07
2022-08-24T05:09:52.517Z,972.05
2022-08-24T05:10:50.175Z,972.06
2022-08-24T05:11:50.435Z,972.03
2022-08-24T05:12:50.698Z,972.04
2022-08-24T05:13:50.946Z,972.03
2022-08-24T05:14:51.206Z,972.05
2022-08-24T05:15:51.496Z,972.05
2022-08-24T05:16:53.050Z,972.07
2022-08-24T05:17:52.095Z,972.08
2022-08-24T05:18:52.350Z,972.09
2022-08-24T05:19:52.606Z,972.11
2022-08-24T05:20:52.862Z,972.12
2022-08-24T05:21:53.118Z,972.12
2022-08-24T05:22:55.959Z,972.17
2022-08-24T05:23:53.698Z,972.19
2022-08-24T05:24:53.950Z,972.19
2022-08-24T05:25:54.280Z,972.21
2022-08-24T05:26:54.530Z,972.21
2022-08-24T05:27:54.790Z,972.21
2022-08-24T05:28:55.049Z,972.26
2022-08-24T05:29:55.301Z,972.23
2022-08-24T05:30:55.550Z,972.22
2022-08-24T05:31:55.822Z,972.23
2022-08-24T05:32:56.072Z,972.27
2022-08-24T05:33:56.333Z,972.26
2022-08-24T05:34:56.591Z,972.27
2022-08-24T05:35:56.843Z,972.28
2022-08-24T05:36:57.101Z,972.32
2022-08-24T05:37:57.364Z,972.32
2022-08-24T05:38:57.624Z,972.34
2022-08-24T05:39:57.964Z,972.35
2022-08-24T05:40:58.185Z,972.31
2022-08-24T05:41:58.445Z,972.30
2022-08-24T05:42:58.707Z,972.30
2022-08-24T05:43:58.958Z,972.30
2022-08-24T05:44:59.214Z,972.33
2022-08-24T05:45:59.468Z,972.34
2022-08-24T05:46:59.809Z,972.35
2022-08-24T05:48:00.046Z,972.33
2022-08-24T05:49:00.300Z,972.31
2022-08-24T05:50:00.558Z,972.32
2022-08-24T05:51:00.790Z,972.32
2022-08-24T05:52:01.049Z,972.31
2022-08-24T05:53:01.326Z,972.31
2022-08-24T05:54:01.580Z,972.34
2022-08-24T05:55:01.841Z,972.28
2022-08-24T05:56:02.101Z,972.30
2022-08-24T05:57:02.360Z,972.31
2022-08-24T05:58:02.620Z,972.32
2022-08-24T05:59:02.881Z,972.29
2022-08-24T06:00:03.141Z,972.31
2022-08-24T06:01:03.402Z,972.29
2022-08-24T06:02:03.729Z,972.31
2022-08-24T06:03:04.153Z,972.27
2022-08-24T06:04:04.278Z,972.31
2022-08-24T06:05:04.543Z,972.24
2022-08-24T06:06:04.805Z,972.26
2022-08-24T06:07:05.064Z,972.26
2022-08-24T06:08:05.323Z,972.26
2022-08-24T06:09:05.575Z,972.33
2022-08-24T06:10:32.956Z,972.24
2022-08-24T06:11:07.075Z,972.26
2022-08-24T06:12:06.317Z,972.26
2022-08-24T06:13:06.606Z,972.26
2022-08-24T06:14:07.641Z,972.25
2022-08-24T06:15:07.106Z,972.30
2022-08-24T06:16:20.945Z,972.25
2022-08-24T06:17:08.659Z,972.26
2022-08-24T06:18:07.952Z,972.22
2022-08-24T06:19:08.241Z,972.24
2022-08-24T06:20:08.482Z,972.25
2022-08-24T06:21:08.763Z,972.24
2022-08-24T06:22:09.003Z,972.22
2022-08-24T06:23:09.259Z,972.23
2022-08-24T06:24:09.519Z,972.23
2022-08-24T06:25:09.775Z,972.20
2022-08-24T06:26:14.691Z,972.21
2022-08-24T06:27:11.271Z,972.22
2022-08-24T06:28:10.602Z,972.21
2022-08-24T06:29:10.864Z,972.25
2022-08-24T06:30:11.121Z,972.19
2022-08-24T06:31:11.452Z,972.18
2022-08-24T06:32:11.735Z,972.21
2022-08-24T06:33:11.982Z,972.19
2022-08-24T06:34:12.263Z,972.22
2022-08-24T06:35:12.523Z,972.20
2022-08-24T06:36:12.793Z,972.19
2022-08-24T06:37:13.041Z,972.21
2022-08-24T06:38:13.305Z,972.19
2022-08-24T06:39:13.555Z,972.22
2022-08-24T06:40:13.843Z,972.22
2022-08-24T06:41:14.114Z,972.25
2022-08-24T06:42:14.386Z,972.22
2022-08-24T06:43:14.636Z,972.21
2022-08-24T06:44:14.898Z,972.28
2022-08-24T06:45:15.155Z,972.27
2022-08-24T06:46:15.453Z,972.29
2022-08-24T06:47:15.718Z,972.28
2022-08-24T06:48:15.979Z,972.26
2022-08-24T06:49:16.268Z,972.26
2022-08-24T06:50:16.519Z,972.34
2022-08-24T06:51:16.796Z,972.29
2022-08-24T06:52:17.069Z,972.28
2022-08-24T06:53:17.341Z,972.30
2022-08-24T06:54:17.600Z,972.31
2022-08-24T06:55:17.860Z,972.26
2022-08-24T06:56:18.139Z,972.27
2022-08-24T06:57:18.391Z,972.30
2022-08-24T06:58:18.651Z,972.30
2022-08-24T06:59:18.911Z,972.29
2022-08-24T07:00:19.171Z,972.26
2022-08-24T07:01:19.512Z,972.24
2022-08-24T07:02:19.752Z,972.28
2022-08-24T07:03:20.078Z,972.25
2022-08-24T07:04:20.333Z,972.27
2022-08-24T07:05:20.594Z,972.26
2022-08-24T07:06:20.855Z,972.25
2022-08-24T07:07:21.127Z,972.27
2022-08-24T07:08:21.404Z,972.26
2022-08-24T07:09:21.683Z,972.28
2022-08-24T07:10:21.955Z,972.27
2022-08-24T07:11:22.291Z,972.26
2022-08-24T07:12:22.556Z,972.25
2022-08-24T07:13:22.826Z,972.26
2022-08-24T07:14:23.097Z,972.26
2022-08-24T07:15:23.372Z,972.21
2022-08-24T07:16:23.689Z,972.23
2022-08-24T07:17:23.968Z,972.28
2022-08-24T07:18:24.253Z,972.29
2022-08-24T07:19:24.508Z,972.26
2022-08-24T07:20:24.799Z,972.26
2022-08-24T07:21:25.079Z,972.25
2022-08-24T07:22:25.360Z,972.24
2022-08-24T07:23:25.631Z,972.25
2022-08-24T07:24:26.870Z,972.22
2022-08-24T07:25:26.210Z,972.23
2022-08-24T07:26:26.481Z,972.21
2022-08-24T07:27:26.759Z,972.20
2022-08-24T07:28:27.674Z,972.22
2022-08-24T07:29:47.263Z,972.19
2022-08-24T07:30:28.647Z,972.18
2022-08-24T07:31:30.958Z,972.21
2022-08-24T07:32:29.144Z,972.18
2022-08-24T07:33:28.471Z,972.20
2022-08-24T07:34:28.743Z,972.19
2022-08-24T07:35:29.015Z,972.19
2022-08-24T07:36:29.324Z,972.15
2022-08-24T07:37:40.235Z,972.14
2022-08-24T07:38:30.855Z,972.15
2022-08-24T07:39:30.186Z,972.16
2022-08-24T07:40:30.506Z,972.17
2022-08-24T07:41:43.550Z,972.22
2022-08-24T07:42:32.301Z,972.19
2022-08-24T07:43:31.316Z,972.20
2022-08-24T07:44:31.594Z,972.20
2022-08-24T07:45:31.858Z,972.21
2022-08-24T07:46:32.187Z,972.23
2022-08-24T07:47:39.515Z,972.20
2022-08-24T07:48:33.686Z,972.22
2022-08-24T07:49:37.275Z,972.18
2022-08-24T07:50:34.298Z,972.24
2022-08-24T07:52:33.731Z,972.20
2022-08-24T07:53:52.589Z,972.20
2022-08-24T07:54:35.284Z,972.23
2022-08-24T07:55:34.611Z,972.22
2022-08-24T07:56:35.859Z,972.24
2022-08-24T07:57:35.191Z,972.27
2022-08-24T07:58:35.471Z,972.24
2022-08-24T07:59:35.744Z,972.21
2022-08-24T08:00:36.020Z,972.21
2022-08-24T08:01:36.325Z,972.24
2022-08-24T08:02:36.726Z,972.22
2022-08-24T08:03:36.943Z,972.19
2022-08-24T08:04:37.223Z,972.22
2022-08-24T08:05:37.493Z,972.19
2022-08-24T08:06:37.792Z,972.15
2022-08-24T08:07:38.095Z,972.18
2022-08-24T08:08:38.372Z,972.15
2022-08-24T08:09:38.657Z,972.18
2022-08-24T08:10:38.925Z,972.16
2022-08-24T08:11:39.206Z,972.13
2022-08-24T08:12:39.466Z,972.16
2022-08-24T08:14:40.077Z,972.18
2022-08-24T08:15:40.367Z,972.16
2022-08-24T08:16:40.647Z,972.16
2022-08-24T08:17:40.907Z,972.19
2022-08-24T08:18:41.187Z,972.19
2022-08-24T08:19:41.459Z,972.19
2022-08-24T08:20:41.730Z,972.19
2022-08-24T08:21:42.009Z,972.22
2022-08-24T08:22:42.298Z,972.19
2022-08-24T08:23:42.569Z,972.22
2022-08-24T08:24:42.812Z,972.22
2022-08-24T08:25:47.249Z,972.21
2022-08-24T08:26:43.390Z,972.21
2022-08-24T08:28:43.918Z,972.25
2022-08-24T08:29:44.189Z,972.24
2022-08-24T08:30:44.485Z,972.26
2022-08-24T08:31:44.744Z,972.23
2022-08-24T08:32:45.012Z,972.24
2022-08-24T08:33:45.283Z,972.26
2022-08-24T08:34:45.561Z,972.30
2022-08-24T08:35:45.835Z,972.24
2022-08-24T08:36:46.112Z,972.25
2022-08-24T08:37:46.394Z,972.24
2022-08-24T08:38:46.665Z,972.26
2022-08-24T08:39:47.023Z,972.25
2022-08-24T08:40:47.265Z,972.22
2022-08-24T08:41:47.545Z,972.23
2022-08-24T08:42:47.825Z,972.23
2022-08-24T08:43:48.107Z,972.26
2022-08-24T08:44:48.384Z,972.24
2022-08-24T08:45:48.708Z,972.25
2022-08-24T08:46:48.979Z,972.22
2022-08-24T08:47:49.293Z,972.22
2022-08-24T08:48:49.558Z,972.17
2022-08-24T08:49:49.828Z,972.17
2022-08-24T08:50:50.116Z,972.22
2022-08-24T08:51:50.387Z,972.14
2022-08-24T08:52:50.657Z,972.16
2022-08-24T08:53:50.929Z,972.15
2022-08-24T08:54:51.209Z,972.14
2022-08-24T08:55:51.647Z,972.13
2022-08-24T08:56:54.933Z,972.12
2022-08-24T08:57:53.010Z,972.12
2022-08-24T08:58:57.076Z,972.15
2022-08-24T08:59:53.600Z,972.12
2022-08-24T09:00:52.951Z,972.12
2022-08-24T09:01:53.316Z,972.12
2022-08-24T09:02:53.473Z,972.11
2022-08-24T09:03:53.835Z,972.13
2022-08-24T09:04:54.434Z,972.11
2022-08-24T09:06:54.783Z,972.13
2022-08-24T09:07:55.063Z,972.07
2022-08-24T09:08:55.335Z,972.10
2022-08-24T09:09:55.614Z,972.10
2022-08-24T09:10:55.892Z,972.06
2022-08-24T09:11:56.167Z,972.05
2022-08-24T09:12:56.437Z,972.06
2022-08-24T09:13:56.705Z,972.07
2022-08-24T09:14:56.976Z,972.04
2022-08-24T09:15:57.602Z,972.03
2022-08-24T09:16:57.566Z,972.04
2022-08-24T09:17:57.902Z,972.04
2022-08-24T09:18:58.146Z,971.99
2022-08-24T09:19:58.439Z,972.00
2022-08-24T09:20:58.716Z,971.98
2022-08-24T09:21:58.989Z,971.99
2022-08-24T09:22:59.258Z,971.97
2022-08-24T09:23:59.528Z,971.94
2022-08-24T09:24:59.809Z,971.97
2022-08-24T09:26:00.080Z,971.96
2022-08-24T09:27:00.359Z,971.96
2022-08-24T09:28:00.737Z,971.97
2022-08-24T09:29:00.960Z,971.93
2022-08-24T09:30:01.250Z,971.94
2022-08-24T09:31:01.579Z,971.93
2022-08-24T09:32:01.861Z,971.88
2022-08-24T09:33:02.094Z,971.93
2022-08-24T09:34:02.363Z,971.91
2022-08-24T09:35:02.679Z,971.91
2022-08-24T09:36:02.932Z,971.93
2022-08-24T09:37:03.213Z,971.90
2022-08-24T09:38:03.484Z,971.93
2022-08-24T09:39:03.753Z,971.91
2022-08-24T09:40:04.073Z,971.91
2022-08-24T09:41:04.347Z,971.91
2022-08-24T09:42:04.623Z,971.90
2022-08-24T09:43:05.172Z,971.87
2022-08-24T09:44:05.213Z,971.89
2022-08-24T09:45:05.486Z,971.86
2022-08-24T09:46:05.856Z,971.83
2022-08-24T09:47:06.136Z,971.86
2022-08-24T09:48:06.399Z,971.85
2022-08-24T09:49:09.127Z,971.85
2022-08-24T09:50:06.896Z,971.86
2022-08-24T09:51:07.217Z,971.85
2022-08-24T09:52:07.498Z,971.86
2022-08-24T09:53:07.767Z,971.87
2022-08-24T09:54:08.041Z,971.80
2022-08-24T09:55:08.372Z,971.86
2022-08-24T09:56:08.648Z,971.85
2022-08-24T09:57:12.522Z,971.86
2022-08-24T09:58:09.310Z,971.85
2022-08-24T09:59:09.549Z,971.79
2022-08-24T10:00:09.829Z,971.80
2022-08-24T10:01:10.198Z,971.79
2022-08-24T10:02:10.422Z,971.76
2022-08-24T10:03:10.722Z,971.75
2022-08-24T10:04:11.031Z,971.73
2022-08-24T10:05:11.417Z,971.70
2022-08-24T10:06:11.714Z,971.73
2022-08-24T10:07:11.843Z,971.74
2022-08-24T10:08:12.133Z,971.74
2022-08-24T10:09:12.464Z,971.71
2022-08-24T10:10:12.735Z,971.67
2022-08-24T10:11:13.020Z,971.66
2022-08-24T10:12:13.293Z,971.66
2022-08-24T10:13:13.564Z,971.68
2022-08-24T10:14:13.869Z,971.65
2022-08-24T10:15:14.136Z,971.65
2022-08-24T10:16:14.461Z,971.60
2022-08-24T10:17:14.715Z,971.59
2022-08-24T10:18:14.986Z,971.57
2022-08-24T10:19:15.257Z,971.56
2022-08-24T10:20:15.550Z,971.56
2022-08-24T10:21:15.857Z,971.58
2022-08-24T10:22:16.128Z,971.56
2022-08-24T10:23:16.407Z,971.52
2022-08-24T10:24:16.688Z,971.54
2022-08-24T10:25:16.969Z,971.60
2022-08-24T10:26:17.260Z,971.54
2022-08-24T10:27:17.529Z,971.53
2022-08-24T10:28:17.800Z,971.52
2022-08-24T10:29:18.072Z,971.57
2022-08-24T10:30:23.913Z,971.54
2022-08-24T10:31:19.683Z,971.54
2022-08-24T10:32:18.881Z,971.51
2022-08-24T10:33:19.168Z,971.48
2022-08-24T10:34:19.421Z,971.48
2022-08-24T10:35:19.683Z,971.45
2022-08-24T10:36:21.086Z,971.47
2022-08-24T10:37:20.202Z,971.43
2022-08-24T10:38:20.467Z,971.46
2022-08-24T10:39:20.725Z,971.42
2022-08-24T10:40:21.029Z,971.41
2022-08-24T10:41:21.295Z,971.43
2022-08-24T10:42:21.564Z,971.38
2022-08-24T10:43:23.965Z,971.38
2022-08-24T10:44:22.064Z,971.39
2022-08-24T10:45:22.393Z,971.38
2022-08-24T10:46:22.626Z,971.39
2022-08-24T10:47:22.906Z,971.38
2022-08-24T10:48:23.155Z,971.37
2022-08-24T10:49:23.408Z,971.41
2022-08-24T10:50:23.667Z,971.39
2022-08-24T10:51:24.908Z,971.40
2022-08-24T10:52:24.225Z,971.40
2022-08-24T10:53:24.477Z,971.40
2022-08-24T10:54:24.738Z,971.39
2022-08-24T10:55:24.998Z,971.37
2022-08-24T10:56:25.257Z,971.33
2022-08-24T10:57:25.529Z,971.33
2022-08-24T10:58:25.799Z,971.31
2022-08-24T10:59:26.101Z,971.33
2022-08-24T11:00:26.367Z,971.35
2022-08-24T11:01:26.779Z,971.37
2022-08-24T11:02:26.955Z,971.38
2022-08-24T11:03:28.661Z,971.36
2022-08-24T11:04:27.503Z,971.38
2022-08-24T11:05:27.752Z,971.37
2022-08-24T11:06:28.219Z,971.37
2022-08-24T11:07:28.312Z,971.36
2022-08-24T11:08:28.573Z,971.38
2022-08-24T11:09:28.822Z,971.39
2022-08-24T11:10:29.084Z,971.40
2022-08-24T11:11:29.341Z,971.47
2022-08-24T11:12:29.601Z,971.39
2022-08-24T11:13:29.855Z,971.42
2022-08-24T11:14:30.114Z,971.40
2022-08-24T11:15:30.365Z,971.43
2022-08-24T11:16:30.712Z,971.42
2022-08-24T11:17:30.946Z,971.49
2022-08-24T11:18:31.215Z,971.44
2022-08-24T11:19:31.493Z,971.44
2022-08-24T11:20:31.805Z,971.46
2022-08-24T11:21:32.036Z,971.48
2022-08-24T11:22:32.298Z,971.43
2022-08-24T11:23:32.638Z,971.40
2022-08-24T11:24:32.887Z,971.40
2022-08-24T11:25:33.141Z,971.39
2022-08-24T11:26:33.415Z,971.42
2022-08-24T11:27:33.678Z,971.43
2022-08-24T11:28:33.942Z,971.41
2022-08-24T11:29:34.206Z,971.48
2022-08-24T11:30:34.480Z,971.40
2022-08-24T11:31:35.911Z,971.44
2022-08-24T11:32:34.981Z,971.43
2022-08-24T11:33:35.301Z,971.42
2022-08-24T11:34:35.572Z,971.41
2022-08-24T11:35:35.821Z,971.42
2022-08-24T11:36:36.082Z,971.41
2022-08-24T11:37:36.341Z,971.40
2022-08-24T11:38:36.604Z,971.43
2022-08-24T11:39:37.028Z,971.41
2022-08-24T11:40:37.131Z,971.40
2022-08-24T11:41:37.383Z,971.39
2022-08-24T11:42:37.655Z,971.41
2022-08-24T11:43:37.913Z,971.35
2022-08-24T11:44:38.224Z,971.35
2022-08-24T11:45:38.482Z,971.32
2022-08-24T11:46:38.766Z,971.29
2022-08-24T11:47:39.033Z,971.29
2022-08-24T11:48:39.286Z,971.29
2022-08-24T11:49:39.566Z,971.22
2022-08-24T11:50:39.857Z,971.23
2022-08-24T11:51:40.146Z,971.18
2022-08-24T11:52:40.406Z,971.15
2022-08-24T11:54:41.158Z,971.23
2022-08-24T11:55:47.323Z,971.25
2022-08-24T11:56:42.435Z,971.24
2022-08-24T11:57:48.296Z,971.26
2022-08-24T11:58:42.948Z,971.29
2022-08-24T11:59:42.267Z,971.27
2022-08-24T12:00:42.530Z,971.25
2022-08-24T12:01:44.676Z,971.26
2022-08-24T12:02:43.100Z,971.20
2022-08-24T12:03:43.341Z,971.19
2022-08-24T12:04:43.600Z,971.20
2022-08-24T12:05:43.881Z,971.20
2022-08-24T12:06:44.201Z,971.20
2022-08-24T12:07:44.452Z,971.15
2022-08-24T12:08:45.690Z,971.17
2022-08-24T12:09:45.009Z,971.19
2022-08-24T12:10:45.262Z,971.21
2022-08-24T12:11:45.540Z,971.21
2022-08-24T12:12:45.836Z,971.18
2022-08-24T12:13:46.093Z,971.16
2022-08-24T12:14:46.370Z,971.14
2022-08-24T12:15:51.330Z,971.10
2022-08-24T12:16:47.951Z,971.08
2022-08-24T12:17:47.162Z,971.07
2022-08-24T12:18:47.446Z,971.14
2022-08-24T12:19:47.706Z,971.09
2022-08-24T12:20:48.325Z,971.06
2022-08-24T12:21:48.306Z,971.10
2022-08-24T12:22:48.565Z,971.09
2022-08-24T12:23:48.817Z,971.14
2022-08-24T12:24:49.088Z,971.17
2022-08-24T12:25:49.362Z,971.15
2022-08-24T12:26:49.645Z,971.15
2022-08-24T12:27:49.898Z,971.17
2022-08-24T12:28:53.766Z,971.14
2022-08-24T12:29:50.410Z,971.12
2022-08-24T12:30:50.659Z,971.14
2022-08-24T12:31:50.997Z,971.09
2022-08-24T12:32:51.250Z,971.10
2022-08-24T12:33:51.499Z,971.10
2022-08-24T12:34:51.762Z,971.11
2022-08-24T12:35:52.020Z,971.08
2022-08-24T12:36:52.281Z,971.08